GB-0599 weather

Public forecast

Using degrees Celsius for public forecast. Weather courtesy of forecast.io.

Closest aviation weather report (METAR) to Bagber Farm Airstrip

Report is more than 6 hours old.

Closest report is Bournemouth Airport, 16.1 nm (29.8 km) E. Retrieved 2020/08/11 18:20 UTC (6 hours ago):

EGHH 111820Z 18003KT CAVOK 29/14 Q1013

Closest aviation forecast (TAF) to Bagber Farm Airstrip

Forecast is more than 12 hours old.

Closest forecast is Bournemouth Airport, 16.1 nm (29.8 km) E. Retrieved 2020/02/21 21:06 UTC (6 months ago):

TAF EGHH 210200Z 2021/2123 CNL